Time;durP1;ratioP1;P1;durP2;ratioP2;P2;SDS_P1;SDS_P2;PMS_P1;PMS_P2;Temp;Humidity;BMP_temperature;BMP_pressure;BME280_temperature;BME280_humidity;BME280_pressure;Samples;Min_cycle;Max_cycle;Signal;HPM_P1;HPM_P2
2021/07/11 00:00:14;;;;;;;28.60;18.00;;;17.70;97.30;;;;;;5019122;28;20439;-87
2021/07/11 00:02:40;;;;;;;24.33;18.00;;;17.70;97.30;;;;;;5019222;28;20235;-88
2021/07/11 00:05:07;;;;;;;20.90;17.23;;;17.60;97.30;;;;;;5018889;28;20481;-87
2021/07/11 00:07:33;;;;;;;24.30;17.70;;;17.60;97.30;;;;;;5018766;28;20367;-87
2021/07/11 00:09:59;;;;;;;20.57;16.43;;;17.60;97.30;;;;;;5019537;28;20485;-87
2021/07/11 00:12:25;;;;;;;28.40;17.23;;;17.60;97.30;;;;;;5019381;28;20419;-87
2021/07/11 00:14:52;;;;;;;23.13;16.93;;;17.60;97.30;;;;;;5018821;28;20304;-87
2021/07/11 00:17:18;;;;;;;24.30;17.97;;;17.50;97.30;;;;;;5020102;28;20419;-87
2021/07/11 00:19:44;;;;;;;26.07;17.87;;;17.50;97.30;;;;;;5019334;28;20465;-87
2021/07/11 00:22:09;;;;;;;26.80;16.47;;;17.50;97.30;;;;;;5018893;28;20176;-87
2021/07/11 00:24:39;;;;;;;25.90;17.33;;;17.50;97.30;;;;;;5030685;28;20203;-87
2021/07/11 00:27:04;;;;;;;21.07;17.03;;;17.50;97.30;;;;;;5031268;28;20660;-88
2021/07/11 00:29:30;;;;;;;23.30;16.10;;;17.40;97.30;;;;;;5017661;28;20450;-88
2021/07/11 00:31:55;;;;;;;26.87;16.80;;;17.40;97.30;;;;;;5035233;28;20180;-88
2021/07/11 00:34:21;;;;;;;21.87;16.70;;;17.40;97.30;;;;;;5017925;28;20200;-87
2021/07/11 00:36:47;;;;;;;24.33;17.20;;;17.40;97.30;;;;;;5018026;28;20176;-87
2021/07/11 00:39:12;;;;;;;28.60;16.70;;;17.40;97.30;;;;;;5017411;28;20176;-87
2021/07/11 00:45:44;;;;;;;26.50;17.50;;;17.40;97.30;;;;;;5014437;28;20624;-87
2021/07/11 00:48:18;;;;;;;23.20;17.33;;;17.40;97.30;;;;;;4996380;28;20412;-87
2021/07/11 00:54:15;;;;;;;27.40;18.80;;;17.40;97.30;;;;;;5030035;28;20499;-88
2021/07/11 00:57:44;;;;;;;20.67;16.13;;;17.40;97.30;;;;;;5016374;28;20441;-87
2021/07/11 01:00:11;;;;;;;27.63;17.80;;;17.40;97.30;;;;;;5014471;23;20529;-87
2021/07/11 01:02:59;;;;;;;23.30;17.50;;;17.30;97.30;;;;;;5016337;28;20506;-87
2021/07/11 01:05:25;;;;;;;23.57;17.50;;;17.30;97.30;;;;;;5004553;28;20474;-87
2021/07/11 01:08:04;;;;;;;25.00;17.73;;;17.30;97.30;;;;;;5016870;28;20782;-87
2021/07/11 01:10:42;;;;;;;25.20;16.63;;;17.30;97.30;;;;;;5016622;28;20493;-87
2021/07/11 01:13:10;;;;;;;26.17;16.47;;;17.30;97.30;;;;;;5017128;28;20826;-87
2021/07/11 01:15:38;;;;;;;24.37;17.10;;;17.20;97.30;;;;;;5017191;28;20419;-87
2021/07/11 01:18:06;;;;;;;24.03;17.00;;;17.20;97.30;;;;;;5017649;28;20505;-87
2021/07/11 01:20:51;;;;;;;24.10;17.57;;;17.20;97.30;;;;;;5017573;28;20446;-87
2021/07/11 01:23:36;;;;;;;25.57;18.33;;;17.20;97.30;;;;;;5017966;28;20419;-87
2021/07/11 01:26:06;;;;;;;22.43;17.57;;;17.10;97.30;;;;;;5018060;28;20411;-87
2021/07/11 01:28:32;;;;;;;22.60;16.40;;;17.10;97.30;;;;;;5017415;28;20803;-87
2021/07/11 01:30:58;;;;;;;23.97;16.60;;;17.10;97.30;;;;;;5017905;28;20530;-88
2021/07/11 01:33:30;;;;;;;23.90;17.27;;;17.10;97.30;;;;;;5017207;28;20673;-87
2021/07/11 01:35:56;;;;;;;24.17;17.90;;;17.10;97.30;;;;;;5034109;28;20457;-87
2021/07/11 01:38:22;;;;;;;21.83;16.90;;;17.10;97.30;;;;;;5016150;28;20415;-87
2021/07/11 01:40:49;;;;;;;23.00;17.30;;;17.10;97.30;;;;;;5015550;28;20515;-87
2021/07/11 01:43:18;;;;;;;29.20;17.90;;;17.00;97.30;;;;;;5015613;28;20419;-87
2021/07/11 01:45:46;;;;;;;24.20;18.10;;;17.00;97.30;;;;;;5033137;28;20411;-87
2021/07/11 01:48:13;;;;;;;26.70;18.07;;;17.00;97.30;;;;;;5033679;28;21059;-87
2021/07/11 01:50:39;;;;;;;25.67;18.10;;;16.90;97.30;;;;;;5015268;28;20516;-87
2021/07/11 01:53:05;;;;;;;24.20;16.93;;;16.90;97.30;;;;;;5015233;28;20415;-87
2021/07/11 01:55:31;;;;;;;23.70;16.23;;;16.80;97.30;;;;;;5015059;28;20415;-87
2021/07/11 01:57:56;;;;;;;25.67;18.67;;;16.80;97.30;;;;;;5014881;28;20177;-87
2021/07/11 02:00:22;;;;;;;27.13;16.60;;;16.80;97.30;;;;;;5015016;28;20721;-87
2021/07/11 02:02:54;;;;;;;23.13;17.37;;;16.80;97.30;;;;;;5036721;28;20172;-88
2021/07/11 02:05:19;;;;;;;24.00;17.63;;;16.70;97.30;;;;;;5019571;28;20829;-87
2021/07/11 02:07:46;;;;;;;22.13;16.60;;;16.70;97.30;;;;;;5019717;28;20995;-88
2021/07/11 02:10:14;;;;;;;26.33;17.67;;;16.70;97.30;;;;;;5019352;28;20317;-87
2021/07/11 02:13:03;;;;;;;23.23;16.70;;;16.60;97.30;;;;;;5019671;28;20423;-87
2021/07/11 02:15:29;;;;;;;22.50;17.00;;;16.60;97.30;;;;;;5019845;28;20411;-87
2021/07/11 02:17:57;;;;;;;26.33;17.07;;;16.60;97.30;;;;;;5019721;28;20422;-87
2021/07/11 02:20:23;;;;;;;24.07;17.47;;;16.50;97.30;;;;;;5019180;28;20655;-87
2021/07/11 02:22:50;;;;;;;24.17;17.03;;;16.50;97.30;;;;;;5020325;28;20910;-87
2021/07/11 02:25:19;;;;;;;29.57;19.43;;;16.50;97.30;;;;;;5020688;28;20450;-87
2021/07/11 02:27:46;;;;;;;23.80;18.57;;;16.40;97.30;;;;;;5020450;28;20415;-86
2021/07/11 02:30:16;;;;;;;28.47;18.67;;;16.40;97.30;;;;;;5068285;22;20446;-88
2021/07/11 02:32:45;;;;;;;26.00;17.30;;;16.40;97.30;;;;;;4999570;28;20471;-88
2021/07/11 02:35:14;;;;;;;27.30;18.13;;;16.40;97.30;;;;;;4997524;28;20419;-88
2021/07/11 02:37:47;;;;;;;24.53;18.63;;;16.40;97.30;;;;;;4998398;28;20415;-89
2021/07/11 02:40:13;;;;;;;30.40;19.13;;;16.30;97.30;;;;;;4996655;28;20452;-89
2021/07/11 02:42:40;;;;;;;25.40;18.57;;;16.30;97.30;;;;;;4979519;28;20420;-89
2021/07/11 02:45:07;;;;;;;34.83;20.00;;;16.30;97.30;;;;;;4979787;28;20417;-89
2021/07/11 02:47:34;;;;;;;28.93;19.60;;;16.30;97.30;;;;;;4979059;28;20828;-89
2021/07/11 02:50:06;;;;;;;26.53;18.27;;;16.30;97.30;;;;;;4979882;28;20476;-87
2021/07/11 02:52:32;;;;;;;25.80;19.07;;;16.30;97.30;;;;;;4979712;28;20449;-88
2021/07/11 02:55:12;;;;;;;30.43;18.80;;;16.20;97.30;;;;;;4979718;28;20409;-88
2021/07/11 02:57:41;;;;;;;30.40;17.57;;;16.20;97.30;;;;;;4979974;28;20412;-89
2021/07/11 03:00:09;;;;;;;31.13;19.60;;;16.20;97.30;;;;;;4980006;28;20836;-88
2021/07/11 03:02:36;;;;;;;29.00;18.67;;;16.20;97.30;;;;;;4979579;28;20951;-89
2021/07/11 03:05:03;;;;;;;28.40;18.43;;;16.20;97.30;;;;;;4977104;28;21015;-89
2021/07/11 03:07:30;;;;;;;28.27;19.33;;;16.20;97.30;;;;;;4977921;28;20416;-89
2021/07/11 03:09:56;;;;;;;26.17;18.80;;;16.20;97.30;;;;;;4975966;28;20492;-89
2021/07/11 03:12:22;;;;;;;27.10;18.47;;;16.20;97.30;;;;;;4977017;28;20582;-86
2021/07/11 03:14:49;;;;;;;31.30;19.03;;;16.20;97.30;;;;;;4976571;28;20174;-89
2021/07/11 03:17:19;;;;;;;30.50;19.40;;;16.20;97.30;;;;;;4978070;28;20413;-89
2021/07/11 03:19:48;;;;;;;25.93;17.73;;;16.10;97.30;;;;;;4977875;28;20417;-89
2021/07/11 03:22:17;;;;;;;27.23;18.33;;;16.10;97.30;;;;;;4976839;28;20465;-89
2021/07/11 03:24:43;;;;;;;29.10;17.60;;;16.10;97.30;;;;;;4976767;28;20417;-89
2021/07/11 03:27:09;;;;;;;29.10;18.50;;;16.10;97.30;;;;;;4977633;28;20867;-89
2021/07/11 03:30:04;;;;;;;35.63;18.90;;;16.10;97.30;;;;;;4976587;28;20456;-89
2021/07/11 03:32:33;;;;;;;33.40;17.07;;;16.10;97.30;;;;;;4977346;28;20417;-89
2021/07/11 03:35:01;;;;;;;28.83;16.93;;;16.10;97.30;;;;;;4978494;28;20413;-89
2021/07/11 03:37:29;;;;;;;28.63;19.23;;;16.10;97.30;;;;;;4977769;28;20428;-89
2021/07/11 03:39:56;;;;;;;24.60;17.00;;;16.10;97.30;;;;;;4978918;28;20432;-89
2021/07/11 03:42:26;;;;;;;25.03;17.80;;;16.10;97.30;;;;;;4979091;28;20640;-87
2021/07/11 03:44:58;;;;;;;26.03;18.90;;;16.10;97.30;;;;;;4978205;28;20420;-89
2021/07/11 03:47:25;;;;;;;24.97;17.23;;;16.10;97.30;;;;;;4977925;28;20785;-89
2021/07/11 03:49:53;;;;;;;25.67;17.73;;;16.10;97.30;;;;;;4978998;28;20471;-89
2021/07/11 03:52:23;;;;;;;24.70;17.20;;;16.10;97.30;;;;;;4977835;28;20413;-89
2021/07/11 03:54:49;;;;;;;29.10;19.20;;;16.10;97.30;;;;;;4979184;28;20410;-89
2021/07/11 03:57:15;;;;;;;25.73;18.67;;;16.10;97.30;;;;;;5010243;28;20420;-89
2021/07/11 03:59:43;;;;;;;24.90;18.20;;;16.10;97.30;;;;;;4977810;28;20428;-89
2021/07/11 04:02:09;;;;;;;26.37;18.13;;;16.10;97.30;;;;;;4976720;28;20229;-89
2021/07/11 04:04:39;;;;;;;26.37;17.20;;;16.10;97.30;;;;;;4995054;28;21003;-89
2021/07/11 04:07:07;;;;;;;28.80;18.73;;;16.10;97.30;;;;;;4977001;28;21034;-88
2021/07/11 04:13:28;;;;;;;27.13;18.53;;;16.20;97.30;;;;;;4983677;28;20486;-88
2021/07/11 04:16:28;;;;;;;39.43;20.77;;;16.20;97.30;;;;;;4962712;28;20417;-89
2021/07/11 04:21:50;;;;;;;30.17;19.20;;;16.20;97.30;;;;;;4946089;28;20444;-88
2021/07/11 04:24:16;;;;;;;32.57;19.77;;;16.20;97.30;;;;;;4956933;28;20461;-89
2021/07/11 04:26:43;;;;;;;27.40;19.50;;;16.30;97.30;;;;;;4957452;28;20426;-89
2021/07/11 04:29:09;;;;;;;29.20;19.90;;;16.30;97.30;;;;;;4957829;28;20453;-87
2021/07/11 04:31:35;;;;;;;28.03;19.77;;;16.30;97.30;;;;;;4973541;28;20596;-88
2021/07/11 04:34:14;;;;;;;32.20;20.37;;;16.30;97.30;;;;;;4957809;28;20857;-89
2021/07/11 04:36:39;;;;;;;28.67;19.40;;;16.30;97.30;;;;;;4958723;28;20178;-88
2021/07/11 04:39:05;;;;;;;31.50;20.00;;;16.40;97.30;;;;;;4976361;28;20477;-88
2021/07/11 04:41:30;;;;;;;34.07;22.00;;;16.40;97.30;;;;;;4957456;28;20206;-89
2021/07/11 04:44:02;;;;;;;29.17;21.33;;;16.40;97.30;;;;;;4957458;28;20201;-88
2021/07/11 04:46:27;;;;;;;29.60;20.40;;;16.40;97.30;;;;;;4958968;28;20179;-88
2021/07/11 04:48:53;;;;;;;31.80;20.27;;;16.40;97.30;;;;;;4959723;28;20485;-88
2021/07/11 04:51:19;;;;;;;32.17;20.23;;;16.40;97.30;;;;;;4958751;28;20281;-88
2021/07/11 04:53:44;;;;;;;30.07;21.50;;;16.50;97.30;;;;;;4957729;28;20433;-89
2021/07/11 04:56:10;;;;;;;28.53;20.90;;;16.50;97.30;;;;;;4975234;28;20278;-88
2021/07/11 04:58:35;;;;;;;31.53;20.60;;;16.50;97.30;;;;;;4959853;28;20237;-88
2021/07/11 05:01:11;;;;;;;38.10;23.27;;;16.50;97.30;;;;;;4958567;28;20202;-88
2021/07/11 05:03:40;;;;;;;36.07;21.10;;;16.60;97.30;;;;;;4957501;28;20182;-87
2021/07/11 05:06:06;;;;;;;34.70;22.40;;;16.70;97.30;;;;;;4956471;28;20783;-87
2021/07/11 05:08:34;;;;;;;34.87;21.60;;;16.70;97.30;;;;;;4956419;28;20434;-91
2021/07/11 05:11:00;;;;;;;32.63;23.87;;;16.70;97.30;;;;;;4966316;28;20252;-89
2021/07/11 05:13:25;;;;;;;35.13;23.03;;;16.80;97.30;;;;;;4974300;28;20425;-90
2021/07/11 05:15:53;;;;;;;28.00;22.10;;;16.80;97.30;;;;;;4976247;28;20726;-90
2021/07/11 05:18:19;;;;;;;39.23;22.70;;;16.90;97.30;;;;;;4975347;28;20225;-90
2021/07/11 05:20:44;;;;;;;31.30;20.40;;;16.90;97.30;;;;;;4974936;28;20445;-90
2021/07/11 05:23:10;;;;;;;31.07;21.00;;;17.00;97.30;;;;;;4974507;28;20571;-89
2021/07/11 05:25:35;;;;;;;30.73;21.00;;;17.00;97.30;;;;;;4992851;28;20651;-89
2021/07/11 05:28:02;;;;;;;30.10;20.47;;;17.00;97.30;;;;;;4974296;28;20192;-89
2021/07/11 05:30:28;;;;;;;35.60;21.60;;;17.00;97.30;;;;;;4976135;28;20816;-90
2021/07/11 05:32:53;;;;;;;27.20;19.23;;;17.00;97.30;;;;;;4975303;28;20452;-89
2021/07/11 05:35:19;;;;;;;32.07;20.00;;;17.00;97.30;;;;;;4976068;28;20232;-90
2021/07/11 05:37:44;;;;;;;24.00;18.50;;;17.00;97.30;;;;;;4993083;28;20210;-90
2021/07/11 05:40:11;;;;;;;25.30;18.20;;;17.10;97.30;;;;;;4976690;28;20686;-90
2021/07/11 05:42:39;;;;;;;27.20;19.00;;;17.10;97.30;;;;;;4976027;28;20638;-89
2021/07/11 05:45:05;;;;;;;26.43;19.30;;;17.10;97.30;;;;;;4993610;28;20523;-90
2021/07/11 05:47:31;;;;;;;23.60;17.70;;;17.20;97.30;;;;;;4976173;28;20525;-89
2021/07/11 05:49:56;;;;;;;25.87;18.97;;;17.20;97.30;;;;;;4993575;28;20460;-90
2021/07/11 05:52:22;;;;;;;25.60;19.03;;;17.30;97.30;;;;;;4976447;28;20181;-90
2021/07/11 05:54:48;;;;;;;26.07;19.37;;;17.30;97.30;;;;;;4968329;28;20174;-89
2021/07/11 05:57:13;;;;;;;25.17;17.90;;;17.40;97.30;;;;;;4967568;28;20181;-90
2021/07/11 05:59:39;;;;;;;26.50;18.97;;;17.40;97.30;;;;;;4964704;28;20237;-90
2021/07/11 06:02:05;;;;;;;33.23;21.17;;;17.50;97.30;;;;;;4964981;28;20267;-90
2021/07/11 06:04:30;;;;;;;31.90;19.93;;;17.50;97.30;;;;;;4967035;28;20170;-91
2021/07/11 06:06:55;;;;;;;27.83;17.60;;;17.60;97.30;;;;;;4971818;28;20200;-91
2021/07/11 06:09:21;;;;;;;25.67;17.30;;;17.60;97.30;;;;;;4964914;28;20206;-90
2021/07/11 06:11:46;;;;;;;25.00;17.90;;;17.70;97.30;;;;;;4963607;28;20190;-91
2021/07/11 06:14:40;;;;;;;26.73;17.20;;;17.70;97.30;;;;;;4996106;28;20175;-91
2021/07/11 06:18:01;;;;;;;;;;;;;;;;;;;;;
2021/07/11 06:20:27;;;;;;;22.00;16.27;;;17.90;97.30;;;;;;4979459;22;20597;-86
2021/07/11 06:22:55;;;;;;;22.63;16.47;;;18.00;97.30;;;;;;5009218;28;20439;-88
2021/07/11 06:25:21;;;;;;;22.37;16.07;;;18.00;97.30;;;;;;5002551;28;20632;-88
2021/07/11 06:27:47;;;;;;;21.10;16.33;;;18.10;97.30;;;;;;5000038;28;20412;-88
2021/07/11 06:30:20;;;;;;;18.63;13.27;;;18.20;97.30;;;;;;4995989;28;20296;-87
2021/07/11 06:32:47;;;;;;;18.93;13.67;;;18.20;97.30;;;;;;5009086;28;20268;-88
2021/07/11 06:35:16;;;;;;;13.63;12.10;;;18.20;97.30;;;;;;5015915;28;20502;-88
2021/07/11 06:37:45;;;;;;;18.03;14.00;;;18.30;97.30;;;;;;5015319;28;20419;-88
2021/07/11 06:40:12;;;;;;;16.00;12.30;;;18.40;97.30;;;;;;5011019;28;20816;-88
2021/07/11 06:42:40;;;;;;;14.97;11.70;;;18.40;97.30;;;;;;5013936;28;20798;-88
2021/07/11 06:45:08;;;;;;;15.17;12.20;;;18.50;97.30;;;;;;5007275;28;20419;-88
2021/07/11 06:47:34;;;;;;;13.40;10.40;;;18.50;97.30;;;;;;4997964;28;20555;-86
2021/07/11 06:50:00;;;;;;;14.00;10.87;;;18.50;97.30;;;;;;5003337;28;20455;-89
2021/07/11 06:52:26;;;;;;;15.77;11.13;;;18.60;97.30;;;;;;5010175;28;20863;-89
2021/07/11 06:54:58;;;;;;;12.67;10.67;;;18.70;97.30;;;;;;5012490;28;20583;-89
2021/07/11 06:57:30;;;;;;;12.27;11.00;;;18.80;97.30;;;;;;5016634;28;20430;-90
2021/07/11 06:59:56;;;;;;;13.80;10.50;;;18.80;97.30;;;;;;5012878;28;20434;-88
2021/07/11 07:02:23;;;;;;;13.93;10.17;;;18.90;97.30;;;;;;5015493;28;20467;-90
2021/07/11 07:04:49;;;;;;;12.17;10.10;;;19.00;97.30;;;;;;5012359;28;20427;-90
2021/07/11 07:07:16;;;;;;;17.37;11.90;;;19.00;97.30;;;;;;5021027;28;20423;-89
2021/07/11 07:09:46;;;;;;;13.97;10.70;;;19.10;97.30;;;;;;5006228;28;20197;-90
2021/07/11 07:12:15;;;;;;;13.00;10.30;;;19.10;97.30;;;;;;5014071;28;20565;-89
2021/07/11 07:14:43;;;;;;;13.50;10.80;;;19.10;97.30;;;;;;5012359;28;20450;-90
2021/07/11 07:17:09;;;;;;;14.30;11.23;;;19.20;97.30;;;;;;5007474;28;20423;-89
2021/07/11 07:19:35;;;;;;;17.00;11.70;;;19.20;97.30;;;;;;5013610;28;20438;-89
2021/07/11 07:22:00;;;;;;;14.30;11.50;;;19.20;97.30;;;;;;5010689;28;20527;-89
2021/07/11 07:24:26;;;;;;;15.70;11.40;;;19.20;97.30;;;;;;5019581;28;20195;-89
2021/07/11 07:26:51;;;;;;;15.70;12.20;;;19.20;97.30;;;;;;5019920;28;20186;-90
2021/07/11 07:29:17;;;;;;;20.00;12.60;;;19.20;97.30;;;;;;5017362;28;20252;-90
2021/07/11 07:31:44;;;;;;;16.20;12.10;;;19.30;97.30;;;;;;5020170;28;20202;-90
2021/07/11 07:34:09;;;;;;;19.40;12.67;;;19.30;97.30;;;;;;5006406;28;20177;-90
2021/07/11 07:36:35;;;;;;;17.13;13.03;;;19.30;97.30;;;;;;5002530;28;20412;-90
2021/07/11 07:39:03;;;;;;;17.80;12.00;;;19.30;97.30;;;;;;5001746;28;20239;-90
2021/07/11 07:41:29;;;;;;;14.80;11.87;;;19.40;97.30;;;;;;5012992;28;20193;-90
2021/07/11 07:43:55;;;;;;;15.80;11.50;;;19.40;97.30;;;;;;5023899;28;20442;-90
2021/07/11 07:46:20;;;;;;;13.70;11.20;;;19.40;97.30;;;;;;5010304;28;20439;-90
2021/07/11 07:48:46;;;;;;;13.40;11.00;;;19.50;97.30;;;;;;5001111;28;20431;-90
2021/07/11 07:51:11;;;;;;;13.77;11.40;;;19.50;97.30;;;;;;5003224;28;20201;-91
2021/07/11 07:53:37;;;;;;;16.47;11.20;;;19.60;97.30;;;;;;5021848;28;20177;-90
2021/07/11 07:56:03;;;;;;;15.47;11.43;;;19.70;97.30;;;;;;5020509;28;20590;-90
2021/07/11 07:58:28;;;;;;;14.63;10.43;;;19.90;97.30;;;;;;5019907;28;20183;-91
2021/07/11 08:00:54;;;;;;;14.40;9.80;;;20.00;97.30;;;;;;4999954;28;20208;-91
2021/07/11 08:03:20;;;;;;;14.67;9.77;;;20.10;97.30;;;;;;5019751;28;20216;-90
2021/07/11 08:05:46;;;;;;;11.40;9.73;;;20.30;97.30;;;;;;5019564;28;20184;-90
2021/07/11 08:08:12;;;;;;;13.40;9.70;;;20.40;97.30;;;;;;5019549;28;20427;-90
2021/07/11 08:10:38;;;;;;;11.93;9.47;;;20.50;97.30;;;;;;5020061;28;20216;-91
2021/07/11 08:13:04;;;;;;;11.20;8.60;;;20.60;97.30;;;;;;5019732;28;20251;-90
2021/07/11 08:15:30;;;;;;;11.80;8.47;;;20.70;97.30;;;;;;5020710;28;20181;-90
2021/07/11 08:17:55;;;;;;;10.40;9.10;;;20.80;97.30;;;;;;5020448;28;20419;-90
2021/07/11 08:20:22;;;;;;;9.97;8.27;;;20.90;97.30;;;;;;5001265;28;20467;-90
2021/07/11 08:22:48;;;;;;;9.47;7.87;;;21.00;97.30;;;;;;5016125;28;20187;-90
2021/07/11 08:25:14;;;;;;;7.37;6.53;;;21.10;97.30;;;;;;5018043;28;20419;-90
2021/07/11 08:27:41;;;;;;;10.73;7.50;;;21.20;97.30;;;;;;5018714;28;20176;-90
2021/07/11 08:30:11;;;;;;;20.07;9.07;;;21.30;97.30;;;;;;5020609;28;20467;-91
2021/07/11 08:32:38;;;;;;;34.60;15.10;;;21.40;97.30;;;;;;5019982;28;20439;-91
2021/07/11 08:35:04;;;;;;;9.77;7.20;;;21.50;97.30;;;;;;5020525;28;20446;-90
2021/07/11 08:37:30;;;;;;;7.10;5.90;;;21.60;97.30;;;;;;5019946;28;20407;-91
2021/07/11 08:39:57;;;;;;;23.20;10.77;;;21.60;97.30;;;;;;5021329;28;20437;-91
2021/07/11 08:42:25;;;;;;;6.60;6.07;;;21.70;97.30;;;;;;5021000;28;20207;-89
2021/07/11 08:44:52;;;;;;;8.00;5.97;;;21.80;97.30;;;;;;5019036;28;20427;-86
2021/07/11 08:47:18;;;;;;;22.43;10.47;;;21.90;97.30;;;;;;5018543;28;20411;-91
2021/07/11 08:49:44;;;;;;;6.70;5.93;;;22.00;97.30;;;;;;5018974;28;20965;-91
2021/07/11 08:52:10;;;;;;;8.13;5.60;;;22.00;97.30;;;;;;5035319;28;20446;-92
2021/07/11 08:54:37;;;;;;;17.63;10.30;;;22.10;97.30;;;;;;5018608;28;20183;-91
2021/07/11 08:57:05;;;;;;;9.13;6.27;;;22.10;97.30;;;;;;5020206;28;20176;-91
2021/07/11 08:59:32;;;;;;;10.00;7.70;;;22.20;97.30;;;;;;5020236;28;20469;-90
2021/07/11 09:01:58;;;;;;;17.53;7.00;;;22.20;97.30;;;;;;5020093;28;20512;-91
2021/07/11 09:04:25;;;;;;;11.77;7.13;;;22.20;97.30;;;;;;5020796;28;20435;-91
2021/07/11 09:06:55;;;;;;;10.43;7.10;;;22.20;97.30;;;;;;5019525;28;20427;-91
2021/07/11 09:09:26;;;;;;;7.57;6.10;;;22.30;97.30;;;;;;5020232;28;20528;-92
2021/07/11 09:11:55;;;;;;;8.07;6.97;;;22.40;97.30;;;;;;5010764;28;20480;-91
2021/07/11 09:14:28;;;;;;;11.90;6.40;;;22.50;97.30;;;;;;5000940;28;20797;-91
2021/07/11 09:16:56;;;;;;;6.93;5.77;;;22.60;97.30;;;;;;4999868;28;20416;-90
2021/07/11 09:19:28;;;;;;;10.50;6.90;;;22.80;97.30;;;;;;5000608;28;21016;-91
2021/07/11 09:22:17;;;;;;;8.43;5.50;;;22.90;97.30;;;;;;4999982;28;20893;-91
2021/07/11 09:24:58;;;;;;;6.40;5.40;;;23.00;97.30;;;;;;4999857;28;20412;-91
2021/07/11 09:27:31;;;;;;;6.63;5.30;;;23.10;97.30;;;;;;4999796;28;20843;-91
2021/07/11 09:30:04;;;;;;;6.00;5.60;;;23.20;97.30;;;;;;5019560;23;20507;-89
2021/07/11 09:32:31;;;;;;;12.63;6.80;;;23.20;97.30;;;;;;5012725;28;20412;-88
2021/07/11 09:35:18;;;;;;;7.30;6.13;;;23.30;97.30;;;;;;4996507;28;20790;-89
2021/07/11 09:37:48;;;;;;;5.67;5.37;;;23.40;97.30;;;;;;4995554;28;20412;-90
2021/07/11 09:40:16;;;;;;;8.07;6.20;;;23.30;97.30;;;;;;4996030;28;20451;-89
2021/07/11 09:42:45;;;;;;;6.33;5.00;;;23.30;97.30;;;;;;4992570;28;20417;-90
2021/07/11 09:45:23;;;;;;;5.17;4.93;;;23.30;97.30;;;;;;4990958;28;20417;-90
2021/07/11 09:47:51;;;;;;;5.60;5.23;;;23.40;97.30;;;;;;5011623;28;20416;-89
2021/07/11 09:50:23;;;;;;;6.10;5.80;;;23.40;97.30;;;;;;4995356;28;20628;-89
2021/07/11 09:52:51;;;;;;;7.33;5.40;;;23.50;97.30;;;;;;4994385;28;20810;-89
2021/07/11 09:55:29;;;;;;;7.13;6.03;;;23.50;97.30;;;;;;4994998;28;20409;-89
2021/07/11 09:57:59;;;;;;;6.93;5.60;;;23.60;97.30;;;;;;4995603;28;20416;-89
2021/07/11 10:00:26;;;;;;;7.20;5.43;;;23.70;97.30;;;;;;4996352;28;20440;-89
2021/07/11 10:02:59;;;;;;;6.90;5.40;;;23.70;97.30;;;;;;4995736;28;20499;-88
2021/07/11 10:05:27;;;;;;;5.53;4.93;;;23.70;97.30;;;;;;5014514;28;20466;-89
2021/07/11 10:07:53;;;;;;;4.70;4.40;;;23.70;97.30;;;;;;4995713;28;20412;-89
2021/07/11 10:10:22;;;;;;;5.30;5.00;;;23.70;97.30;;;;;;4993650;28;20495;-89
2021/07/11 10:12:48;;;;;;;5.27;5.00;;;23.80;97.30;;;;;;4994055;28;20459;-89
2021/07/11 10:15:17;;;;;;;4.63;4.40;;;23.80;97.30;;;;;;4996676;28;20466;-86
2021/07/11 10:17:52;;;;;;;6.37;5.03;;;23.80;97.30;;;;;;4998869;28;20950;-89
2021/07/11 10:20:20;;;;;;;5.70;4.90;;;23.80;97.30;;;;;;4996963;28;20518;-89
2021/07/11 10:22:52;;;;;;;7.83;4.80;;;23.80;97.30;;;;;;5015835;28;20475;-89
2021/07/11 10:25:21;;;;;;;9.10;4.90;;;23.80;97.30;;;;;;5000968;28;20431;-90
2021/07/11 10:27:47;;;;;;;5.43;4.53;;;23.90;97.30;;;;;;4999151;28;20424;-89
2021/07/11 10:30:14;;;;;;;10.00;5.23;;;23.90;97.30;;;;;;5013561;28;20475;-89
2021/07/11 10:32:40;;;;;;;9.40;4.50;;;23.90;97.30;;;;;;5008617;28;20462;-90
2021/07/11 10:35:17;;;;;;;5.10;4.80;;;23.90;97.30;;;;;;5001924;28;20510;-89
2021/07/11 10:37:54;;;;;;;7.37;4.60;;;23.90;97.30;;;;;;4996353;28;20236;-89
2021/07/11 10:40:29;;;;;;;6.90;5.50;;;23.90;97.00;;;;;;4999638;28;20435;-88
2021/07/11 10:42:55;;;;;;;7.37;5.40;;;23.90;97.30;;;;;;4998961;28;20475;-90
2021/07/11 10:45:21;;;;;;;5.17;4.60;;;24.00;97.30;;;;;;4999296;28;20448;-90
2021/07/11 10:47:47;;;;;;;4.80;4.50;;;24.00;97.30;;;;;;4999103;28;20185;-90
2021/07/11 10:50:21;;;;;;;5.03;4.80;;;24.00;97.30;;;;;;4999356;28;20299;-90
2021/07/11 10:52:46;;;;;;;12.10;5.00;;;24.10;97.20;;;;;;5000943;28;20416;-90
2021/07/11 10:55:13;;;;;;;5.90;5.60;;;24.10;96.20;;;;;;5019273;28;20440;-90
2021/07/11 10:57:39;;;;;;;5.30;4.47;;;24.20;97.30;;;;;;5002809;28;20185;-90
2021/07/11 11:00:14;;;;;;;6.90;4.53;;;24.20;95.30;;;;;;5016534;23;20504;-83
2021/07/11 11:02:49;;;;;;;6.77;4.37;;;24.30;96.50;;;;;;4988152;28;20178;-82
2021/07/11 11:05:21;;;;;;;6.30;5.40;;;24.30;96.90;;;;;;4996223;28;20418;-82
2021/07/11 11:11:06;;;;;;;7.10;4.73;;;24.60;97.30;;;;;;5028117;28;20482;-81
2021/07/11 11:13:41;;;;;;;4.97;4.67;;;24.80;97.30;;;;;;5003245;28;20436;-84
2021/07/11 11:16:19;;;;;;;5.20;4.63;;;25.00;97.30;;;;;;4981601;28;20420;-83
2021/07/11 11:18:50;;;;;;;9.07;5.57;;;25.10;96.50;;;;;;4982248;28;20790;-84
2021/07/11 11:21:24;;;;;;;5.67;4.13;;;25.20;97.30;;;;;;4978572;28;20445;-83
2021/07/11 11:23:58;;;;;;;6.70;4.70;;;25.30;96.00;;;;;;4987556;28;20460;-83
2021/07/11 11:27:07;;;;;;;6.00;4.63;;;25.40;97.30;;;;;;4993467;28;20429;-82
2021/07/11 11:29:36;;;;;;;5.47;4.83;;;25.50;97.30;;;;;;4989938;28;20463;-83
2021/07/11 11:32:28;;;;;;;6.47;4.70;;;25.50;97.30;;;;;;4995915;28;20464;-81
2021/07/11 11:34:54;;;;;;;4.60;3.90;;;25.50;96.70;;;;;;4992032;28;20170;-82
2021/07/11 11:37:19;;;;;;;3.83;3.63;;;25.60;93.30;;;;;;4982880;28;20423;-83
2021/07/11 11:39:53;;;;;;;4.17;3.93;;;25.60;93.20;;;;;;4994591;28;20215;-82
2021/07/11 11:42:21;;;;;;;5.10;4.83;;;25.70;93.80;;;;;;5001604;28;20213;-83
2021/07/11 11:45:02;;;;;;;6.43;5.10;;;25.80;92.40;;;;;;4991201;28;20507;-82
2021/07/11 11:47:32;;;;;;;5.10;4.00;;;25.90;93.90;;;;;;4997452;28;20936;-83
2021/07/11 11:50:08;;;;;;;6.30;4.83;;;25.90;91.20;;;;;;4985759;28;20477;-84
2021/07/11 11:52:33;;;;;;;4.03;3.83;;;25.90;92.40;;;;;;4991350;28;20439;-84
2021/07/11 11:55:04;;;;;;;5.63;4.37;;;26.10;95.20;;;;;;4984819;28;20885;-84
2021/07/11 11:57:32;;;;;;;8.80;5.77;;;26.00;90.80;;;;;;5001151;28;20191;-84
2021/07/11 11:59:58;;;;;;;6.40;5.53;;;26.00;91.60;;;;;;4982660;28;20504;-84
2021/07/11 12:02:24;;;;;;;6.47;5.50;;;25.90;92.60;;;;;;4982997;28;20449;-85
2021/07/11 12:04:50;;;;;;;5.90;5.60;;;25.80;92.40;;;;;;4982939;28;20559;-84
2021/07/11 12:07:16;;;;;;;5.90;5.37;;;25.80;94.30;;;;;;4981724;28;20979;-84
2021/07/11 12:09:42;;;;;;;6.47;5.60;;;25.90;95.50;;;;;;4991117;28;20460;-83
2021/07/11 12:12:10;;;;;;;11.70;5.47;;;26.00;93.60;;;;;;4995358;28;20221;-83
2021/07/11 12:14:38;;;;;;;6.53;5.57;;;26.00;92.40;;;;;;4995306;28;20517;-83
2021/07/11 12:17:12;;;;;;;5.43;5.13;;;26.00;91.90;;;;;;4994975;28;20479;-82
2021/07/11 12:19:45;;;;;;;5.90;5.60;;;26.00;92.70;;;;;;4994361;28;20564;-83
2021/07/11 12:22:16;;;;;;;6.40;5.10;;;26.10;92.90;;;;;;4996167;28;20441;-83
2021/07/11 12:24:42;;;;;;;6.53;5.30;;;26.30;93.50;;;;;;4995075;28;20442;-84
2021/07/11 12:27:08;;;;;;;6.73;5.30;;;26.40;94.30;;;;;;4995356;28;20452;-83
2021/07/11 12:29:35;;;;;;;6.30;4.80;;;26.50;91.40;;;;;;4995827;28;20220;-83
2021/07/11 12:32:03;;;;;;;7.13;5.40;;;26.60;90.40;;;;;;4997267;28;20444;-83
2021/07/11 12:34:29;;;;;;;6.10;5.27;;;26.60;90.30;;;;;;4996618;28;20429;-83
2021/07/11 12:36:59;;;;;;;5.17;4.87;;;26.60;90.90;;;;;;4996036;28;20425;-84
2021/07/11 12:39:26;;;;;;;5.73;4.73;;;26.70;94.40;;;;;;4996163;28;20432;-82
2021/07/11 12:41:53;;;;;;;6.47;5.40;;;26.70;92.30;;;;;;4995160;28;20445;-83
2021/07/11 12:44:29;;;;;;;5.60;4.40;;;26.70;91.40;;;;;;4995315;28;20482;-83
2021/07/11 12:47:14;;;;;;;7.63;4.80;;;26.60;91.70;;;;;;4994887;28;20415;-83
2021/07/11 12:49:54;;;;;;;6.30;4.63;;;26.60;92.00;;;;;;4994968;28;20467;-83
2021/07/11 12:52:20;;;;;;;4.70;4.40;;;26.70;92.60;;;;;;4996231;28;20462;-83
2021/07/11 12:54:46;;;;;;;5.30;5.07;;;26.80;90.60;;;;;;4994945;28;20424;-83
2021/07/11 12:57:12;;;;;;;5.10;4.80;;;27.00;95.00;;;;;;4994080;28;20425;-82
2021/07/11 12:59:45;;;;;;;5.00;4.40;;;27.30;96.00;;;;;;4993999;28;20244;-83
2021/07/11 13:02:20;;;;;;;5.00;4.70;;;27.30;90.80;;;;;;4995595;28;20186;-83